Time;durP1;ratioP1;P1;durP2;ratioP2;P2;SDS_P1;SDS_P2;PMS_P1;PMS_P2;Temp;Humidity;BMP_temperature;BMP_pressure;BME280_temperature;BME280_humidity;BME280_pressure;Samples;Min_cycle;Max_cycle;Signal;HPM_P1;HPM_P2
2022/03/04 00:00:14;;;;;;;18.88;11.23;;;0.40;89.20;;;;;;4930288;29;20027;-80
2022/03/04 00:02:39;;;;;;;24.52;11.70;;;0.40;89.90;;;;;;4931251;29;20106;-78
2022/03/04 00:05:06;;;;;;;20.08;11.57;;;0.60;89.60;;;;;;4948252;29;20214;-78
2022/03/04 00:07:31;;;;;;;21.15;11.82;;;0.40;89.10;;;;;;4930618;29;20209;-81
2022/03/04 00:10:01;;;;;;;22.38;12.73;;;0.30;89.30;;;;;;4931608;29;20027;-79
2022/03/04 00:12:28;;;;;;;20.33;11.27;;;0.30;88.70;;;;;;4946990;29;20038;-79
2022/03/04 00:14:54;;;;;;;19.25;10.90;;;0.40;88.80;;;;;;4947923;29;20104;-79
2022/03/04 00:17:20;;;;;;;21.15;11.52;;;0.40;88.90;;;;;;4947901;29;20043;-79
2022/03/04 00:19:45;;;;;;;21.30;12.02;;;0.20;88.60;;;;;;4948238;29;20044;-80
2022/03/04 00:22:13;;;;;;;23.67;12.38;;;0.20;89.30;;;;;;4948110;29;20023;-80
2022/03/04 00:24:39;;;;;;;23.17;12.90;;;0.20;89.70;;;;;;4947579;29;20238;-81
2022/03/04 00:27:04;;;;;;;23.23;12.00;;;0.10;89.70;;;;;;4930775;29;20070;-79
2022/03/04 00:29:30;;;;;;;23.60;12.02;;;0.10;90.30;;;;;;4927232;29;20115;-79
2022/03/04 00:31:56;;;;;;;20.45;11.60;;;0.00;90.20;;;;;;4928396;29;20148;-81
2022/03/04 00:34:22;;;;;;;21.50;11.93;;;0.10;90.30;;;;;;4934484;29;20031;-80
2022/03/04 00:36:49;;;;;;;20.92;11.57;;;0.20;90.50;;;;;;4925831;29;20048;-80
2022/03/04 00:39:15;;;;;;;18.63;10.82;;;0.20;90.20;;;;;;4928692;29;20031;-79
2022/03/04 00:41:42;;;;;;;20.88;12.20;;;0.30;90.60;;;;;;4942984;29;20030;-79
2022/03/04 00:44:08;;;;;;;21.55;12.15;;;0.10;90.10;;;;;;4927422;29;20028;-80
2022/03/04 00:46:35;;;;;;;20.90;11.82;;;0.20;90.40;;;;;;4910952;29;20040;-78
2022/03/04 00:49:01;;;;;;;21.23;11.40;;;0.10;90.50;;;;;;4928414;29;20329;-80
2022/03/04 00:51:27;;;;;;;19.63;11.70;;;0.10;90.80;;;;;;4911818;29;20051;-78
2022/03/04 00:53:53;;;;;;;20.73;11.40;;;0.00;90.90;;;;;;4928256;29;20091;-78
2022/03/04 00:56:18;;;;;;;21.00;11.60;;;-0.20;90.80;;;;;;4942973;29;20040;-79
2022/03/04 00:58:44;;;;;;;21.30;11.50;;;-0.30;91.10;;;;;;4910978;29;20075;-79
2022/03/04 01:01:10;;;;;;;21.05;11.35;;;-0.30;91.20;;;;;;4945684;29;20272;-82
2022/03/04 01:03:36;;;;;;;22.27;11.18;;;-0.20;91.00;;;;;;4947075;29;20039;-80
2022/03/04 01:06:03;;;;;;;21.60;12.13;;;-0.30;90.90;;;;;;4946835;29;20104;-80
2022/03/04 01:08:29;;;;;;;20.23;11.30;;;-0.40;91.00;;;;;;4930706;29;20028;-80
2022/03/04 01:10:55;;;;;;;19.33;10.80;;;-0.40;91.00;;;;;;4946611;29;20095;-77
2022/03/04 01:13:22;;;;;;;23.50;12.18;;;-0.40;90.80;;;;;;4946067;29;20314;-81
2022/03/04 01:15:48;;;;;;;20.15;11.30;;;-0.40;91.20;;;;;;4945699;29;20110;-80
2022/03/04 01:18:15;;;;;;;19.08;11.75;;;-0.40;91.60;;;;;;4947376;29;20082;-79
2022/03/04 01:20:59;;;;;;;21.05;11.48;;;-0.30;91.30;;;;;;4945871;29;20027;-78
2022/03/04 01:23:25;;;;;;;21.83;11.60;;;-0.40;91.10;;;;;;4947860;29;20027;-79
2022/03/04 01:25:52;;;;;;;21.80;11.63;;;-0.60;91.60;;;;;;4929933;29;20054;-78
2022/03/04 01:28:20;;;;;;;19.58;11.52;;;-0.30;91.90;;;;;;4930257;29;20031;-78
2022/03/04 01:30:50;;;;;;;24.25;11.70;;;-0.30;91.70;;;;;;4929436;29;20058;-78
2022/03/04 01:33:16;;;;;;;22.75;12.07;;;-0.20;91.50;;;;;;4929894;29;20043;-79
2022/03/04 01:35:42;;;;;;;21.77;12.02;;;-0.20;91.30;;;;;;4945190;29;20043;-79
2022/03/04 01:38:08;;;;;;;21.55;12.38;;;-0.20;91.30;;;;;;4929679;29;20051;-79
2022/03/04 01:40:34;;;;;;;23.92;12.73;;;-0.30;91.50;;;;;;4929038;29;20258;-79
2022/03/04 01:43:00;;;;;;;21.88;11.35;;;-0.30;91.50;;;;;;4930053;29;20024;-81
2022/03/04 01:45:26;;;;;;;20.80;11.23;;;-0.40;91.90;;;;;;4930420;29;20055;-79
2022/03/04 01:47:52;;;;;;;23.38;11.43;;;-0.50;92.00;;;;;;4930448;29;20368;-79
2022/03/04 01:50:22;;;;;;;21.13;12.30;;;-0.40;92.00;;;;;;4946574;29;20035;-80
2022/03/04 01:52:49;;;;;;;20.35;11.25;;;-0.50;91.80;;;;;;4929073;29;20043;-78
2022/03/04 01:55:15;;;;;;;20.80;12.52;;;-0.50;92.20;;;;;;4945320;29;20337;-78
2022/03/04 01:57:40;;;;;;;22.67;12.27;;;-0.40;92.00;;;;;;4945896;29;20037;-80
2022/03/04 02:00:11;;;;;;;24.50;12.35;;;-0.40;92.20;;;;;;4929302;29;20027;-79
2022/03/04 02:02:42;;;;;;;20.67;12.57;;;-0.30;92.00;;;;;;4929021;29;20035;-79
2022/03/04 02:05:12;;;;;;;23.92;13.02;;;-0.40;92.40;;;;;;4929145;29;20106;-80
2022/03/04 02:07:37;;;;;;;20.42;11.90;;;-0.40;92.50;;;;;;4928522;29;20031;-79
2022/03/04 02:10:08;;;;;;;24.80;12.32;;;-0.40;92.40;;;;;;4946181;29;20238;-80
2022/03/04 02:12:35;;;;;;;22.35;12.27;;;-0.60;92.50;;;;;;4928839;29;20051;-79
2022/03/04 02:15:02;;;;;;;22.73;12.50;;;-0.60;92.80;;;;;;4929299;29;20043;-77
2022/03/04 02:17:28;;;;;;;21.23;12.20;;;-0.80;92.50;;;;;;4944967;29;20107;-78
2022/03/04 02:20:01;;;;;;;18.83;11.20;;;-0.70;92.70;;;;;;4945687;29;20015;-81
2022/03/04 02:22:27;;;;;;;23.85;12.85;;;-0.60;92.50;;;;;;4928411;29;20370;-80
2022/03/04 02:24:53;;;;;;;21.65;12.38;;;-0.50;92.10;;;;;;4945185;29;20038;-80
2022/03/04 02:27:18;;;;;;;24.33;12.90;;;-0.70;92.30;;;;;;4928702;29;20254;-78
2022/03/04 02:29:44;;;;;;;23.55;12.55;;;-0.90;92.30;;;;;;4944120;29;20091;-77
2022/03/04 02:32:13;;;;;;;25.05;13.38;;;-0.90;92.90;;;;;;4928499;29;20036;-79
2022/03/04 02:34:40;;;;;;;23.55;12.68;;;-1.00;93.00;;;;;;4945373;29;20023;-77
2022/03/04 02:37:06;;;;;;;24.83;13.05;;;-0.90;93.00;;;;;;4944384;29;20051;-77
2022/03/04 02:39:32;;;;;;;27.92;12.63;;;-1.00;93.10;;;;;;4928492;29;20219;-78
2022/03/04 02:41:58;;;;;;;23.63;12.93;;;-1.10;93.20;;;;;;4945226;29;20027;-78
2022/03/04 02:44:24;;;;;;;26.10;13.75;;;-1.00;93.20;;;;;;4945789;29;20024;-80
2022/03/04 02:46:49;;;;;;;20.25;12.52;;;-1.10;93.20;;;;;;4912954;29;20395;-77
2022/03/04 02:49:18;;;;;;;25.90;13.93;;;-1.10;93.20;;;;;;4945823;29;20042;-77
2022/03/04 02:51:44;;;;;;;22.95;13.13;;;-1.10;93.00;;;;;;4945385;29;20305;-79
2022/03/04 02:54:10;;;;;;;25.27;13.13;;;-1.10;93.30;;;;;;4928816;29;20043;-80
2022/03/04 02:56:36;;;;;;;21.92;12.45;;;-1.10;93.00;;;;;;4928287;29;20045;-78
2022/03/04 02:59:02;;;;;;;24.50;13.15;;;-1.10;93.10;;;;;;4928380;29;20020;-78
2022/03/04 03:01:27;;;;;;;27.67;13.63;;;-1.10;93.10;;;;;;4945016;29;20039;-78
2022/03/04 03:03:53;;;;;;;22.20;13.30;;;-1.20;93.10;;;;;;4943761;29;20107;-78
2022/03/04 03:06:19;;;;;;;22.23;12.98;;;-1.20;92.80;;;;;;4944252;29;20024;-78
2022/03/04 03:08:45;;;;;;;23.55;12.27;;;-1.20;93.00;;;;;;4915534;29;20059;-77
2022/03/04 03:11:10;;;;;;;22.15;12.75;;;-1.10;93.00;;;;;;4944326;29;20217;-79
2022/03/04 03:13:37;;;;;;;22.55;12.85;;;-1.10;92.80;;;;;;4945574;29;20035;-77
2022/03/04 03:16:03;;;;;;;20.42;12.88;;;-1.00;92.60;;;;;;4929882;29;20043;-80
2022/03/04 03:18:29;;;;;;;23.05;13.23;;;-1.00;92.60;;;;;;4913209;29;20015;-79
2022/03/04 03:20:55;;;;;;;23.08;12.75;;;-1.10;92.50;;;;;;4944831;29;20028;-77
2022/03/04 03:23:21;;;;;;;23.63;13.05;;;-1.20;92.80;;;;;;4945928;29;20075;-78
2022/03/04 03:25:46;;;;;;;23.15;12.88;;;-1.20;92.70;;;;;;4928275;29;20297;-79
2022/03/04 03:28:12;;;;;;;20.52;12.25;;;-1.20;92.70;;;;;;4927739;29;20373;-77
2022/03/04 03:30:38;;;;;;;24.60;13.18;;;-1.10;92.80;;;;;;4944508;29;20035;-80
2022/03/04 03:33:04;;;;;;;24.55;13.48;;;-1.20;92.70;;;;;;4945119;29;20149;-77
2022/03/04 03:35:29;;;;;;;25.08;14.07;;;-1.30;92.90;;;;;;4948866;29;20053;-78
2022/03/04 03:37:55;;;;;;;27.88;13.75;;;-1.30;93.00;;;;;;4930826;29;20070;-79
2022/03/04 03:40:21;;;;;;;22.38;13.25;;;-1.40;93.20;;;;;;4947545;29;20038;-79
2022/03/04 03:42:47;;;;;;;25.48;12.93;;;-1.30;92.90;;;;;;4946851;29;20028;-78
2022/03/04 03:45:16;;;;;;;26.02;13.52;;;-1.40;93.20;;;;;;4931326;29;20016;-77
2022/03/04 03:47:42;;;;;;;23.15;13.50;;;-1.40;93.20;;;;;;4931130;29;20027;-79
2022/03/04 03:50:11;;;;;;;23.50;12.55;;;-1.40;93.20;;;;;;4931823;29;20042;-79
2022/03/04 03:52:37;;;;;;;23.98;13.48;;;-1.40;93.10;;;;;;4931294;29;20039;-79
2022/03/04 03:55:05;;;;;;;24.27;12.90;;;-1.40;93.20;;;;;;4930953;29;20051;-80
2022/03/04 03:57:31;;;;;;;23.88;13.48;;;-1.40;93.10;;;;;;4932895;29;20020;-79
2022/03/04 03:59:56;;;;;;;24.48;13.73;;;-1.40;93.00;;;;;;4932544;29;20028;-79
2022/03/04 04:02:22;;;;;;;25.25;13.45;;;-1.30;92.90;;;;;;4931481;29;20023;-76
2022/03/04 04:04:51;;;;;;;24.75;13.70;;;-1.30;92.90;;;;;;4930586;29;20310;-78
2022/03/04 04:07:17;;;;;;;27.23;12.73;;;-1.40;92.80;;;;;;4931029;29;20032;-78
2022/03/04 04:09:43;;;;;;;23.15;13.13;;;-1.30;93.10;;;;;;4947582;29;20094;-78
2022/03/04 04:12:13;;;;;;;24.85;12.75;;;-1.30;92.70;;;;;;4937871;29;20203;-77
2022/03/04 04:14:38;;;;;;;21.98;12.50;;;-1.20;92.40;;;;;;4946966;29;20038;-78
2022/03/04 04:17:05;;;;;;;23.40;12.30;;;-1.20;92.50;;;;;;4946037;29;20031;-78
2022/03/04 04:19:37;;;;;;;21.23;12.82;;;-1.20;92.50;;;;;;4946269;29;20047;-78
2022/03/04 04:22:03;;;;;;;25.77;13.98;;;-1.20;92.50;;;;;;4914856;29;20038;-78
2022/03/04 04:24:28;;;;;;;24.67;13.45;;;-1.20;92.90;;;;;;4947959;29;20031;-77
2022/03/04 04:26:57;;;;;;;;;;;-1.30;92.60;;;;;;4915536;29;20192;-79
2022/03/04 04:29:22;;;;;;;24.30;13.55;;;-1.50;93.00;;;;;;4946441;29;19977;-78
2022/03/04 04:31:48;;;;;;;24.35;13.35;;;-1.50;93.30;;;;;;4945563;29;20038;-80
2022/03/04 04:34:14;;;;;;;26.00;13.30;;;-1.40;93.40;;;;;;4914640;29;20042;-80
2022/03/04 04:36:40;;;;;;;22.60;13.10;;;-1.40;93.50;;;;;;4946190;29;20046;-78
2022/03/04 04:39:05;;;;;;;26.10;14.57;;;-1.40;93.40;;;;;;4930360;29;20364;-80
2022/03/04 04:41:31;;;;;;;26.55;14.05;;;-1.40;93.60;;;;;;4946292;29;20028;-80
2022/03/04 04:44:00;;;;;;;28.88;14.77;;;-1.30;93.30;;;;;;4929463;29;20095;-80
2022/03/04 04:46:29;;;;;;;26.58;13.95;;;-1.30;93.40;;;;;;4946027;29;20035;-79
2022/03/04 04:49:04;;;;;;;26.40;14.07;;;-1.40;93.30;;;;;;4946871;29;20031;-79
2022/03/04 04:51:31;;;;;;;24.20;13.43;;;-1.50;93.60;;;;;;4929958;29;20082;-79
2022/03/04 04:53:57;;;;;;;25.40;13.40;;;-1.60;93.70;;;;;;4946396;29;20023;-78
2022/03/04 04:56:22;;;;;;;28.63;15.05;;;-1.70;94.00;;;;;;4929847;29;20335;-79
2022/03/04 04:58:48;;;;;;;26.48;14.77;;;-1.60;94.20;;;;;;4913885;29;20106;-80
2022/03/04 05:01:15;;;;;;;26.45;14.32;;;-1.70;94.70;;;;;;4945585;29;20019;-78
2022/03/04 05:03:41;;;;;;;26.58;13.65;;;-1.80;94.90;;;;;;4945563;29;20034;-77
2022/03/04 05:06:12;;;;;;;25.55;14.05;;;-1.70;94.80;;;;;;4929930;29;20059;-79
2022/03/04 05:08:38;;;;;;;27.42;14.68;;;-1.70;94.70;;;;;;4914094;29;20054;-80
2022/03/04 05:11:13;;;;;;;28.15;14.32;;;-1.70;94.40;;;;;;4946565;29;20015;-78
2022/03/04 05:13:38;;;;;;;26.85;13.55;;;-1.70;94.40;;;;;;4945423;29;20098;-79
2022/03/04 05:16:10;;;;;;;24.10;13.43;;;-1.70;94.50;;;;;;4946096;29;20034;-78
2022/03/04 05:18:35;;;;;;;29.85;14.00;;;-1.80;94.70;;;;;;4945316;29;20043;-79
2022/03/04 05:21:07;;;;;;;27.95;15.38;;;-1.80;94.70;;;;;;4913476;29;20039;-78
2022/03/04 05:24:00;;;;;;;26.60;15.55;;;-1.90;94.70;;;;;;4944830;29;20036;-78
2022/03/04 05:26:35;;;;;;;27.90;14.80;;;-1.80;94.50;;;;;;4929594;29;20310;-78
2022/03/04 05:29:04;;;;;;;26.45;14.32;;;-1.80;94.70;;;;;;4945899;29;20304;-78
2022/03/04 05:31:30;;;;;;;26.08;13.85;;;-1.80;94.60;;;;;;4945306;29;20389;-76
2022/03/04 05:33:57;;;;;;;25.38;13.90;;;-1.90;94.50;;;;;;4946364;29;20051;-78
2022/03/04 05:36:23;;;;;;;25.17;14.25;;;-1.90;94.70;;;;;;4929588;29;20024;-79
2022/03/04 05:38:49;;;;;;;24.40;13.68;;;-2.00;95.10;;;;;;4929120;29;20032;-78
2022/03/04 05:41:16;;;;;;;28.38;14.48;;;-2.00;95.00;;;;;;4945024;29;20058;-78
2022/03/04 05:43:43;;;;;;;26.00;14.95;;;-1.90;95.30;;;;;;4913416;29;20106;-79
2022/03/04 05:46:09;;;;;;;27.20;14.85;;;-2.00;95.50;;;;;;4944659;29;20020;-78
2022/03/04 05:49:03;;;;;;;24.55;13.35;;;-2.10;95.70;;;;;;4946954;29;20035;-79
2022/03/04 05:51:29;;;;;;;27.45;14.60;;;-2.10;95.90;;;;;;4912705;29;20032;-79
2022/03/04 05:53:55;;;;;;;26.15;14.27;;;-2.10;95.90;;;;;;4944310;29;20026;-78
2022/03/04 05:56:22;;;;;;;27.10;13.85;;;-2.10;96.20;;;;;;4928718;29;20044;-77
2022/03/04 05:58:48;;;;;;;28.77;14.10;;;-2.10;96.60;;;;;;4945746;29;20027;-78
2022/03/04 06:01:14;;;;;;;24.70;13.55;;;-2.10;96.50;;;;;;4943973;29;20058;-77
2022/03/04 06:03:59;;;;;;;24.85;13.73;;;-2.20;96.30;;;;;;4934938;29;20035;-79
2022/03/04 06:06:27;;;;;;;27.80;15.48;;;-2.20;96.30;;;;;;4937043;29;20035;-78
2022/03/04 06:08:54;;;;;;;27.67;14.73;;;-2.20;96.70;;;;;;4944350;29;20026;-77
2022/03/04 06:11:20;;;;;;;29.63;14.68;;;-2.20;96.90;;;;;;4929752;29;20028;-77
2022/03/04 06:13:46;;;;;;;27.15;14.50;;;-2.10;96.40;;;;;;4925645;29;20031;-78
2022/03/04 06:16:12;;;;;;;27.48;15.20;;;-1.90;96.10;;;;;;4925455;29;20097;-79
2022/03/04 06:18:37;;;;;;;24.50;13.65;;;-2.00;96.30;;;;;;4931584;29;20020;-79
2022/03/04 06:21:28;;;;;;;25.90;13.98;;;-1.90;95.90;;;;;;4942668;29;20333;-79
2022/03/04 06:23:54;;;;;;;27.05;14.65;;;-2.00;96.20;;;;;;4943657;29;20036;-79
2022/03/04 06:26:32;;;;;;;27.10;14.70;;;-2.00;96.70;;;;;;4928311;29;20099;-79
2022/03/04 06:28:59;;;;;;;28.20;14.57;;;-1.70;96.70;;;;;;4927758;29;20027;-77
2022/03/04 06:31:26;;;;;;;27.77;14.50;;;-1.50;95.80;;;;;;4927534;29;20039;-79
2022/03/04 06:33:51;;;;;;;28.10;14.48;;;-1.50;95.40;;;;;;4912637;29;20027;-78
2022/03/04 06:36:20;;;;;;;25.85;14.70;;;-1.40;95.00;;;;;;4917830;29;20036;-79
2022/03/04 06:38:46;;;;;;;27.23;14.95;;;-1.40;94.80;;;;;;4909070;29;20062;-78
2022/03/04 06:41:14;;;;;;;25.83;14.88;;;-1.40;94.80;;;;;;4924537;29;20369;-79
2022/03/04 06:43:40;;;;;;;28.73;14.65;;;-1.40;94.80;;;;;;4925058;29;20040;-79
2022/03/04 06:46:33;;;;;;;28.83;14.95;;;-1.50;94.90;;;;;;4908144;29;20091;-80
2022/03/04 06:48:59;;;;;;;29.23;14.68;;;-1.40;95.00;;;;;;4924995;29;20035;-79
2022/03/04 06:51:25;;;;;;;28.48;15.52;;;-1.30;95.10;;;;;;4908912;29;20119;-80
2022/03/04 06:53:50;;;;;;;40.70;16.90;;;-1.20;95.00;;;;;;4924016;29;20377;-78
2022/03/04 06:56:19;;;;;;;31.83;14.90;;;-1.00;94.80;;;;;;4924822;29;20063;-78
2022/03/04 06:58:45;;;;;;;35.65;15.90;;;-0.90;94.60;;;;;;4924705;29;20107;-78
2022/03/04 07:01:11;;;;;;;31.27;14.95;;;-0.60;94.10;;;;;;4924672;29;20088;-77
2022/03/04 07:03:40;;;;;;;33.42;14.98;;;-0.60;94.00;;;;;;4942686;29;20055;-79
2022/03/04 07:06:05;;;;;;;35.45;14.85;;;-0.40;93.50;;;;;;4927309;29;20028;-78
2022/03/04 07:08:37;;;;;;;28.73;15.35;;;-0.20;93.30;;;;;;4943233;29;20302;-78
2022/03/04 07:11:03;;;;;;;31.25;14.80;;;-0.10;93.00;;;;;;4944127;29;20368;-77
2022/03/04 07:13:29;;;;;;;30.08;14.63;;;0.00;92.60;;;;;;4943441;29;20024;-78
2022/03/04 07:15:54;;;;;;;27.67;15.05;;;0.10;92.40;;;;;;4942585;29;20112;-80
2022/03/04 07:18:20;;;;;;;30.02;15.25;;;0.20;92.40;;;;;;4943639;29;20042;-77
2022/03/04 07:20:52;;;;;;;29.95;15.25;;;0.30;92.20;;;;;;4944358;29;20086;-78
2022/03/04 07:23:36;;;;;;;26.33;14.45;;;0.40;92.10;;;;;;4943652;29;20039;-77
2022/03/04 07:26:37;;;;;;;28.77;15.82;;;0.50;92.10;;;;;;4942710;29;20027;-78
2022/03/04 07:29:15;;;;;;;24.88;14.50;;;0.70;91.90;;;;;;4867230;29;20112;-78
2022/03/04 07:31:41;;;;;;;29.38;15.93;;;0.80;91.50;;;;;;4867337;29;20042;-77
2022/03/04 07:34:10;;;;;;;25.85;14.65;;;0.90;91.60;;;;;;4867152;29;20033;-78
2022/03/04 07:36:36;;;;;;;29.55;15.57;;;1.00;90.70;;;;;;4866998;29;20391;-79
2022/03/04 07:39:02;;;;;;;29.95;15.02;;;0.90;90.90;;;;;;4851808;29;20252;-79
2022/03/04 07:41:31;;;;;;;27.75;14.77;;;1.00;90.40;;;;;;4852062;29;20030;-79
2022/03/04 07:43:59;;;;;;;25.88;15.52;;;1.20;90.00;;;;;;4851625;29;20340;-79
2022/03/04 07:46:49;;;;;;;26.17;15.38;;;1.20;89.50;;;;;;4866362;29;20125;-79
2022/03/04 07:49:18;;;;;;;29.55;15.68;;;1.20;88.80;;;;;;4842357;29;20037;-79
2022/03/04 07:51:59;;;;;;;28.50;14.87;;;1.30;89.10;;;;;;4865000;29;20033;-81
2022/03/04 07:54:27;;;;;;;30.98;15.07;;;1.40;88.20;;;;;;4833341;29;20070;-83
2022/03/04 07:57:03;;;;;;;28.98;16.05;;;1.30;87.70;;;;;;4847051;29;20105;-82
2022/03/04 07:59:29;;;;;;;25.50;14.75;;;1.20;87.50;;;;;;4848470;29;20034;-83
2022/03/04 08:02:00;;;;;;;25.40;16.00;;;1.30;87.10;;;;;;4832889;29;20026;-81
2022/03/04 08:04:35;;;;;;;26.13;14.13;;;1.30;87.30;;;;;;4860271;29;20066;-80
2022/03/04 08:07:01;;;;;;;28.88;16.10;;;1.50;86.80;;;;;;4902838;29;20052;-81
2022/03/04 08:09:30;;;;;;;27.02;15.85;;;1.70;86.10;;;;;;4905568;29;20036;-81
2022/03/04 08:11:55;;;;;;;27.38;15.13;;;1.90;85.80;;;;;;4889105;29;20025;-80
2022/03/04 08:14:21;;;;;;;27.08;15.40;;;2.10;84.90;;;;;;4905147;29;20036;-80
2022/03/04 08:16:51;;;;;;;28.95;15.43;;;2.30;84.20;;;;;;4905052;29;20056;-80
2022/03/04 08:19:19;;;;;;;30.25;15.05;;;2.40;83.70;;;;;;4906828;29;20063;-80
2022/03/04 08:24:37;;;;;;;34.65;15.65;;;2.50;83.60;;;;;;4911801;29;20039;-80
2022/03/04 08:27:31;;;;;;;29.73;15.13;;;2.40;83.20;;;;;;4895684;29;20099;-81
2022/03/04 08:29:57;;;;;;;26.67;14.70;;;2.60;83.70;;;;;;4910513;29;20048;-82
2022/03/04 08:32:23;;;;;;;24.27;15.50;;;2.70;82.50;;;;;;4895780;29;20043;-80
2022/03/04 08:34:49;;;;;;;31.58;15.07;;;2.90;82.20;;;;;;4920605;29;20207;-80
2022/03/04 08:37:16;;;;;;;28.40;15.25;;;3.00;82.00;;;;;;4932812;29;20055;-82
2022/03/04 08:39:47;;;;;;;28.40;15.75;;;3.20;81.30;;;;;;4928159;29;20020;-82
2022/03/04 08:42:13;;;;;;;30.08;15.65;;;3.30;80.70;;;;;;4903953;29;20091;-80
2022/03/04 08:44:54;;;;;;;29.08;16.17;;;3.30;80.90;;;;;;4914930;29;20020;-81
2022/03/04 08:47:23;;;;;;;26.20;16.15;;;3.50;80.40;;;;;;4912991;29;20297;-80
2022/03/04 08:49:48;;;;;;;29.80;16.10;;;3.60;79.80;;;;;;4946215;29;20035;-81
2022/03/04 08:52:14;;;;;;;30.80;16.58;;;3.70;79.70;;;;;;4915604;29;20026;-81
2022/03/04 08:55:07;;;;;;;28.90;15.75;;;3.80;78.70;;;;;;4913836;29;20253;-83
2022/03/04 08:57:36;;;;;;;32.55;16.25;;;4.00;78.10;;;;;;4928282;29;20114;-81
2022/03/04 09:00:03;;;;;;;32.13;16.90;;;4.00;77.60;;;;;;4927951;29;20047;-82
2022/03/04 09:02:28;;;;;;;26.55;15.35;;;3.90;77.80;;;;;;4929196;29;20061;-82
2022/03/04 09:04:54;;;;;;;30.48;15.77;;;4.00;77.30;;;;;;4930194;29;20040;-82
2022/03/04 09:07:20;;;;;;;29.95;16.63;;;4.10;77.10;;;;;;4930125;29;20031;-79
2022/03/04 09:09:46;;;;;;;27.98;16.33;;;4.10;76.80;;;;;;4946545;29;20024;-80
2022/03/04 09:12:11;;;;;;;29.63;16.38;;;4.00;77.20;;;;;;4947444;29;20032;-83
2022/03/04 09:14:37;;;;;;;27.10;16.23;;;4.20;77.40;;;;;;4945206;29;20024;-81
2022/03/04 09:17:03;;;;;;;28.95;16.15;;;4.30;76.90;;;;;;4928710;29;20035;-80
2022/03/04 09:19:30;;;;;;;26.58;15.52;;;4.50;76.60;;;;;;4929638;29;20054;-81
2022/03/04 09:21:57;;;;;;;28.67;16.58;;;4.60;76.00;;;;;;4945634;29;20024;-81
2022/03/04 09:24:23;;;;;;;28.05;15.20;;;4.60;75.80;;;;;;4929827;29;20027;-80
2022/03/04 09:26:48;;;;;;;29.67;16.15;;;4.80;75.50;;;;;;4946207;29;20031;-81
2022/03/04 09:29:26;;;;;;;32.47;16.92;;;4.80;74.90;;;;;;4927546;29;20028;-80
2022/03/04 09:31:52;;;;;;;32.72;17.05;;;4.80;75.10;;;;;;4942180;29;20043;-79
2022/03/04 09:34:19;;;;;;;31.90;15.98;;;4.90;74.70;;;;;;4928584;29;20218;-79
2022/03/04 09:36:45;;;;;;;34.05;16.83;;;4.90;74.00;;;;;;4944714;29;20340;-79
2022/03/04 09:39:11;;;;;;;29.73;17.60;;;5.00;73.60;;;;;;4945643;29;20077;-79
2022/03/04 09:41:55;;;;;;;31.98;17.45;;;5.00;73.60;;;;;;4946082;29;20027;-80
2022/03/04 09:44:21;;;;;;;33.00;17.50;;;5.10;73.80;;;;;;4945512;29;20043;-78
2022/03/04 09:46:49;;;;;;;33.50;17.95;;;5.10;73.90;;;;;;4944907;29;20087;-79
2022/03/04 09:49:20;;;;;;;30.88;17.45;;;5.10;73.50;;;;;;4942551;29;20023;-81
2022/03/04 09:51:45;;;;;;;30.25;16.17;;;5.20;73.20;;;;;;4944598;29;20044;-78
2022/03/04 09:54:17;;;;;;;30.92;17.50;;;5.30;73.10;;;;;;4945330;29;20054;-78
2022/03/04 09:56:43;;;;;;;29.98;17.27;;;5.30;72.70;;;;;;4928168;29;20042;-78
2022/03/04 09:59:09;;;;;;;29.25;16.88;;;5.40;72.30;;;;;;4945117;29;20019;-79
2022/03/04 10:01:34;;;;;;;33.97;17.05;;;5.60;72.10;;;;;;4944883;29;20054;-80
2022/03/04 10:04:00;;;;;;;27.25;16.08;;;5.70;71.80;;;;;;4944399;29;20202;-79
2022/03/04 10:06:36;;;;;;;30.25;16.92;;;5.80;71.50;;;;;;4945103;29;20035;-78
2022/03/04 10:09:57;;;;;;;30.63;16.50;;;5.90;71.00;;;;;;4941932;29;20079;-78
2022/03/04 10:12:51;;;;;;;30.58;17.05;;;6.00;71.00;;;;;;4925204;29;20370;-80
2022/03/04 10:15:18;;;;;;;28.27;15.82;;;6.10;69.80;;;;;;4907894;29;20302;-78
2022/03/04 10:17:56;;;;;;;31.25;17.70;;;6.20;69.60;;;;;;4924904;29;20107;-78
2022/03/04 10:20:30;;;;;;;;;;;6.30;68.80;;;;;;4926554;29;20173;-76
2022/03/04 10:23:10;;;;;;;31.48;17.05;;;6.30;68.70;;;;;;4926274;29;20078;-78
2022/03/04 10:25:47;;;;;;;30.33;17.17;;;6.40;68.60;;;;;;4926051;29;20318;-78
2022/03/04 10:28:14;;;;;;;29.58;17.45;;;6.50;68.20;;;;;;4924933;29;20134;-75
2022/03/04 10:30:50;;;;;;;29.70;16.75;;;6.60;68.30;;;;;;4925122;29;20040;-77
2022/03/04 10:33:24;;;;;;;34.17;17.20;;;6.50;67.20;;;;;;4909051;29;20028;-77
2022/03/04 10:36:11;;;;;;;29.48;17.00;;;6.60;68.00;;;;;;4926863;29;20055;-77
2022/03/04 10:38:38;;;;;;;28.58;15.80;;;6.70;66.30;;;;;;4944993;29;20063;-78
2022/03/04 10:41:24;;;;;;;29.85;16.65;;;6.70;66.30;;;;;;4943872;29;20267;-78
2022/03/04 10:43:51;;;;;;;35.70;17.55;;;6.80;66.10;;;;;;4944591;29;20063;-78
2022/03/04 10:46:17;;;;;;;31.67;17.90;;;6.80;65.60;;;;;;4944129;29;20052;-77
2022/03/04 10:48:55;;;;;;;29.98;17.13;;;7.10;65.80;;;;;;4944070;29;20099;-77
2022/03/04 10:51:39;;;;;;;27.52;16.42;;;7.30;65.40;;;;;;4937311;29;20322;-79
2022/03/04 10:54:13;;;;;;;27.08;16.27;;;7.50;64.40;;;;;;4925714;29;20036;-79
2022/03/04 10:57:08;;;;;;;29.70;16.27;;;7.80;64.40;;;;;;4924391;29;20401;-78
2022/03/04 10:59:34;;;;;;;28.92;16.13;;;8.10;64.00;;;;;;4912994;29;20346;-81
2022/03/04 11:02:00;;;;;;;27.45;15.80;;;8.50;62.70;;;;;;4925384;29;20119;-78
2022/03/04 11:04:26;;;;;;;29.77;15.43;;;9.00;62.00;;;;;;4914575;29;20072;-78
2022/03/04 11:06:52;;;;;;;26.55;16.13;;;9.60;59.90;;;;;;4943775;29;20321;-78
2022/03/04 11:09:24;;;;;;;28.75;17.38;;;10.30;58.00;;;;;;4943986;29;20222;-78
2022/03/04 11:11:51;;;;;;;27.10;16.15;;;11.40;57.00;;;;;;4926992;29;20032;-79
2022/03/04 11:14:19;;;;;;;29.13;16.17;;;12.30;55.50;;;;;;4924849;29;20056;-80
2022/03/04 11:16:48;;;;;;;25.75;15.63;;;12.80;54.60;;;;;;4908223;29;20318;-81
2022/03/04 11:19:15;;;;;;;28.40;16.45;;;13.80;53.60;;;;;;4927453;29;20039;-81
2022/03/04 11:21:41;;;;;;;25.27;16.25;;;14.30;51.00;;;;;;4910480;29;20028;-79
2022/03/04 11:24:07;;;;;;;26.75;16.25;;;15.00;50.40;;;;;;4941315;29;20258;-78
2022/03/04 11:26:35;;;;;;;24.90;17.40;;;15.80;49.70;;;;;;4924914;29;20020;-80
2022/03/04 11:29:03;;;;;;;22.95;15.98;;;16.30;48.70;;;;;;4940974;29;20152;-79
2022/03/04 11:31:29;;;;;;;23.35;17.08;;;16.20;48.50;;;;;;4939749;29;20044;-78
2022/03/04 11:33:58;;;;;;;24.40;15.73;;;16.60;48.40;;;;;;4925935;29;20099;-80
2022/03/04 11:36:32;;;;;;;22.27;16.27;;;18.10;47.50;;;;;;4930471;29;20051;-80
2022/03/04 11:39:09;;;;;;;24.10;16.58;;;18.50;45.30;;;;;;4944133;29;20047;-81
2022/03/04 11:41:39;;;;;;;21.17;15.57;;;18.30;45.00;;;;;;4934114;29;20035;-77
2022/03/04 11:44:19;;;;;;;21.05;17.15;;;18.30;44.30;;;;;;4954731;29;20024;-77
2022/03/04 11:47:05;;;;;;;20.10;16.80;;;18.20;44.80;;;;;;4948658;29;20110;-80
2022/03/04 11:49:49;;;;;;;21.60;15.85;;;18.00;44.40;;;;;;4952967;29;20028;-78
2022/03/04 11:52:29;;;;;;;20.13;16.02;;;18.10;44.60;;;;;;4939405;29;20028;-79
2022/03/04 11:54:58;;;;;;;19.27;14.32;;;18.70;43.40;;;;;;4930696;29;20211;-80
2022/03/04 11:57:27;;;;;;;;;;;19.60;42.00;;;;;;4929657;29;20039;-80
2022/03/04 11:59:58;;;;;;;18.15;14.23;;;20.60;41.00;;;;;;4928851;29;19906;-78
2022/03/04 12:02:37;;;;;;;18.63;14.05;;;20.50;41.00;;;;;;4946250;29;20145;-80
2022/03/04 12:08:48;;;;;;;15.60;12.43;;;20.80;42.30;;;;;;4947342;29;20048;-78
2022/03/04 12:11:23;;;;;;;15.95;12.55;;;21.80;39.50;;;;;;4945901;29;20080;-79
2022/03/04 12:14:05;;;;;;;16.90;11.90;;;21.70;40.10;;;;;;4947113;29;20028;-81
2022/03/04 12:16:49;;;;;;;15.10;10.85;;;22.60;40.20;;;;;;4946419;29;20047;-81
2022/03/04 12:19:33;;;;;;;15.38;11.82;;;23.40;40.50;;;;;;4947613;29;20035;-81
2022/03/04 12:21:59;;;;;;;17.67;13.07;;;23.50;38.30;;;;;;4930954;29;20365;-82
2022/03/04 12:24:35;;;;;;;16.35;12.38;;;22.80;37.70;;;;;;4946340;29;20024;-80
2022/03/04 12:27:02;;;;;;;19.35;14.15;;;24.10;38.90;;;;;;4947600;29;20019;-80
2022/03/04 12:29:47;;;;;;;19.20;13.53;;;22.70;37.80;;;;;;4945614;29;20032;-80
2022/03/04 12:32:13;;;;;;;16.30;12.57;;;22.20;38.60;;;;;;4929571;29;20483;-79
2022/03/04 12:34:49;;;;;;;16.85;12.73;;;22.60;40.00;;;;;;4947682;29;20306;-81
2022/03/04 12:37:15;;;;;;;17.88;14.00;;;22.90;38.40;;;;;;4942193;29;20059;-80
2022/03/04 12:39:56;;;;;;;22.60;13.40;;;21.70;38.40;;;;;;4927541;29;20024;-78
2022/03/04 12:42:26;;;;;;;18.58;13.30;;;21.60;38.70;;;;;;4938610;29;20039;-78
2022/03/04 12:44:56;;;;;;;17.98;12.38;;;21.50;38.70;;;;;;4929559;29;20032;-82
2022/03/04 12:47:25;;;;;;;18.33;11.95;;;21.70;38.40;;;;;;4910418;29;20452;-79